createdAt,value
2018-05-09T00:00:29.492Z,4.03
2018-05-09T00:02:57.658Z,3.90
2018-05-09T00:05:25.824Z,3.78
2018-05-09T00:07:54.003Z,3.53
2018-05-09T00:10:22.163Z,3.60
2018-05-09T00:12:50.358Z,3.62
2018-05-09T00:15:18.517Z,3.80
2018-05-09T00:17:46.677Z,3.77
2018-05-09T00:20:14.863Z,3.85
2018-05-09T00:22:43.009Z,3.70
2018-05-09T00:25:11.201Z,4.28
2018-05-09T00:27:39.378Z,3.45
2018-05-09T00:30:07.532Z,3.70
2018-05-09T00:32:35.717Z,3.60
2018-05-09T00:35:03.903Z,3.60
2018-05-09T00:37:32.084Z,3.75
2018-05-09T00:40:00.268Z,3.63
2018-05-09T00:42:28.430Z,3.70
2018-05-09T00:44:56.606Z,3.95
2018-05-09T00:47:24.800Z,3.92
2018-05-09T00:49:52.979Z,3.50
2018-05-09T00:52:21.171Z,4.00
2018-05-09T00:54:49.358Z,3.60
2018-05-09T00:57:17.561Z,3.65
2018-05-09T00:59:45.713Z,4.03
2018-05-09T01:02:13.885Z,4.00
2018-05-09T01:04:42.068Z,3.80
2018-05-09T01:07:10.246Z,4.07
2018-05-09T01:09:38.413Z,4.22
2018-05-09T01:12:06.592Z,4.10
2018-05-09T01:14:34.770Z,4.03
2018-05-09T01:17:02.965Z,4.20
2018-05-09T01:19:31.160Z,4.30
2018-05-09T01:21:59.339Z,4.40
2018-05-09T01:24:27.500Z,4.35
2018-05-09T01:26:55.654Z,4.75
2018-05-09T01:29:23.839Z,4.22
2018-05-09T01:31:52.013Z,5.37
2018-05-09T01:34:20.196Z,4.80
2018-05-09T01:36:48.387Z,4.60
2018-05-09T01:39:16.559Z,4.80
2018-05-09T01:41:44.728Z,4.72
2018-05-09T01:44:12.906Z,5.00
2018-05-09T01:46:41.061Z,4.55
2018-05-09T01:49:09.234Z,4.70
2018-05-09T01:51:37.441Z,4.72
2018-05-09T01:54:05.623Z,4.55
2018-05-09T01:56:33.800Z,5.10
2018-05-09T01:59:01.968Z,5.22
2018-05-09T02:01:30.153Z,5.32
2018-05-09T02:03:58.328Z,5.30
2018-05-09T02:06:26.487Z,5.30
2018-05-09T02:08:54.648Z,5.82
2018-05-09T02:11:22.821Z,5.45
2018-05-09T02:13:51.019Z,5.68
2018-05-09T02:16:19.180Z,5.70
2018-05-09T02:18:47.386Z,5.70
2018-05-09T02:21:15.623Z,5.68
2018-05-09T02:23:43.782Z,5.20
2018-05-09T02:26:11.904Z,5.60
2018-05-09T02:28:40.078Z,5.32
2018-05-09T02:31:08.333Z,5.25
2018-05-09T02:33:36.415Z,5.50
2018-05-09T02:36:04.657Z,5.28
2018-05-09T02:38:32.813Z,5.30
2018-05-09T02:41:01.003Z,5.60
2018-05-09T02:43:29.170Z,5.30
2018-05-09T02:45:57.352Z,5.28
2018-05-09T02:48:25.516Z,5.60
2018-05-09T02:50:53.711Z,5.28
2018-05-09T02:53:21.911Z,5.25
2018-05-09T02:55:50.063Z,5.80
2018-05-09T02:58:18.237Z,5.67
2018-05-09T03:00:46.405Z,5.05
2018-05-09T03:03:14.596Z,5.50
2018-05-09T03:05:42.775Z,5.30
2018-05-09T03:08:10.931Z,5.30
2018-05-09T03:10:39.089Z,5.30
2018-05-09T03:13:07.306Z,5.62
2018-05-09T03:15:35.448Z,5.80
2018-05-09T03:18:03.601Z,5.90
2018-05-09T03:20:31.781Z,5.70
2018-05-09T03:22:59.964Z,5.62
2018-05-09T03:25:28.148Z,5.78
2018-05-09T03:27:56.300Z,6.00
2018-05-09T03:30:24.489Z,6.03
2018-05-09T03:32:52.662Z,6.15
2018-05-09T03:35:20.848Z,8.10
2018-05-09T03:37:48.998Z,15.73
2018-05-09T03:40:17.171Z,10.80
2018-05-09T03:42:45.358Z,13.18
2018-05-09T03:45:13.556Z,15.48
2018-05-09T03:47:41.719Z,16.97
2018-05-09T03:50:09.893Z,18.42
2018-05-09T03:52:38.059Z,17.17
2018-05-09T03:55:06.241Z,18.40
2018-05-09T03:57:34.427Z,16.45
2018-05-09T04:00:04.628Z,15.82
2018-05-09T04:03:09.563Z,15.23
2018-05-09T04:06:14.118Z,13.50
2018-05-09T04:09:35.936Z,11.65
2018-05-09T04:12:04.039Z,9.23
2018-05-09T04:14:32.211Z,8.20
2018-05-09T04:17:00.431Z,8.32
2018-05-09T04:19:28.616Z,9.20
2018-05-09T04:21:56.766Z,8.70
2018-05-09T04:24:25.009Z,8.55
2018-05-09T04:26:53.210Z,8.48
2018-05-09T04:29:21.412Z,7.85
2018-05-09T04:31:49.596Z,7.70
2018-05-09T04:34:17.773Z,7.95
2018-05-09T04:36:45.938Z,8.02
2018-05-09T04:39:14.157Z,7.70
2018-05-09T04:41:42.321Z,8.27
2018-05-09T04:44:10.466Z,8.80
2018-05-09T04:46:38.678Z,8.48
2018-05-09T04:49:08.430Z,8.02
2018-05-09T04:51:36.609Z,7.85
2018-05-09T04:54:04.799Z,7.77
2018-05-09T04:56:32.959Z,7.32
2018-05-09T04:59:01.158Z,7.57
2018-05-09T05:01:29.357Z,7.60
2018-05-09T05:03:57.531Z,7.10
2018-05-09T05:06:25.724Z,7.10
2018-05-09T05:08:53.935Z,7.37
2018-05-09T05:11:22.092Z,6.83
2018-05-09T05:13:50.287Z,8.00
2018-05-09T05:16:18.468Z,7.82
2018-05-09T05:18:46.675Z,7.68
2018-05-09T05:21:14.805Z,7.47
2018-05-09T05:23:42.979Z,7.47
2018-05-09T05:26:11.147Z,7.05
2018-05-09T05:28:39.371Z,7.45
2018-05-09T05:31:07.547Z,7.67
2018-05-09T05:33:35.735Z,7.90
2018-05-09T05:36:03.934Z,7.47
2018-05-09T05:38:32.152Z,7.20
2018-05-09T05:41:00.334Z,7.30
2018-05-09T05:43:28.513Z,7.28
2018-05-09T05:45:56.688Z,7.50
2018-05-09T05:48:28.287Z,7.15
2018-05-09T05:50:56.478Z,7.50
2018-05-09T05:53:24.675Z,7.10
2018-05-09T05:55:52.874Z,7.45
2018-05-09T05:58:21.049Z,7.37
2018-05-09T06:00:49.223Z,7.57
2018-05-09T06:03:17.583Z,7.60
2018-05-09T06:05:45.747Z,7.28
2018-05-09T06:08:17.291Z,7.20
2018-05-09T06:10:45.405Z,7.43
2018-05-09T06:13:13.607Z,7.20
2018-05-09T06:15:41.767Z,7.57
2018-05-09T06:18:09.977Z,7.62
2018-05-09T06:20:38.167Z,7.80
2018-05-09T06:23:06.375Z,8.23
2018-05-09T06:25:34.567Z,7.43
2018-05-09T06:28:02.722Z,7.32
2018-05-09T06:30:30.888Z,7.18
2018-05-09T06:32:59.075Z,7.75
2018-05-09T06:35:27.254Z,7.70
2018-05-09T06:37:55.400Z,7.30
2018-05-09T06:40:23.589Z,7.53
2018-05-09T06:42:51.763Z,7.32
2018-05-09T06:45:19.956Z,7.37
2018-05-09T06:47:48.129Z,6.95
2018-05-09T06:50:16.308Z,7.20
2018-05-09T06:52:44.507Z,7.47
2018-05-09T06:55:12.703Z,7.33
2018-05-09T06:57:41.350Z,7.63
2018-05-09T07:00:09.502Z,7.00
2018-05-09T07:02:37.700Z,7.20
2018-05-09T07:05:05.875Z,6.97
2018-05-09T07:07:34.103Z,7.30
2018-05-09T07:10:02.282Z,7.40
2018-05-09T07:12:30.522Z,8.02
2018-05-09T07:14:58.669Z,7.82
2018-05-09T07:17:26.862Z,7.10
2018-05-09T07:19:55.022Z,7.25
2018-05-09T07:22:23.331Z,6.37
2018-05-09T07:24:51.402Z,6.67
2018-05-09T07:27:19.600Z,7.80
2018-05-09T07:29:47.767Z,7.47
2018-05-09T07:32:15.945Z,7.75
2018-05-09T07:34:44.215Z,7.95
2018-05-09T07:37:12.347Z,7.22
2018-05-09T07:39:40.540Z,7.00
2018-05-09T07:42:08.721Z,6.62
2018-05-09T07:44:36.907Z,7.25
2018-05-09T07:47:05.085Z,7.40
2018-05-09T07:49:33.296Z,7.28
2018-05-09T07:52:01.495Z,6.93
2018-05-09T07:54:29.866Z,6.27
2018-05-09T07:56:58.036Z,6.20
2018-05-09T07:59:26.240Z,5.90
2018-05-09T08:01:54.453Z,6.05
2018-05-09T08:04:22.623Z,6.03
2018-05-09T08:06:50.838Z,5.65
2018-05-09T08:09:19.051Z,5.60
2018-05-09T08:11:47.228Z,6.20
2018-05-09T08:14:15.435Z,6.32
2018-05-09T08:16:43.612Z,6.93
2018-05-09T08:19:11.779Z,6.80
2018-05-09T08:21:39.972Z,7.37
2018-05-09T08:24:08.151Z,6.25
2018-05-09T08:26:36.342Z,7.05
2018-05-09T08:29:04.503Z,7.75
2018-05-09T08:31:32.696Z,7.13
2018-05-09T08:34:00.944Z,6.57
2018-05-09T08:36:29.165Z,6.78
2018-05-09T08:38:57.365Z,7.57
2018-05-09T08:41:25.493Z,7.50
2018-05-09T08:43:53.782Z,6.80
2018-05-09T08:46:21.920Z,6.57
2018-05-09T08:48:50.133Z,6.15
2018-05-09T08:51:18.339Z,6.62
2018-05-09T08:53:46.547Z,6.90
2018-05-09T08:56:14.761Z,7.00
2018-05-09T08:58:42.948Z,7.93
2018-05-09T09:01:11.143Z,8.23
2018-05-09T09:03:39.320Z,7.50
2018-05-09T09:06:07.527Z,8.93
2018-05-09T09:08:35.727Z,9.48
2018-05-09T09:11:03.912Z,11.18
2018-05-09T09:13:32.100Z,11.52
2018-05-09T09:16:00.332Z,10.40
2018-05-09T09:18:28.549Z,7.97
2018-05-09T09:20:56.759Z,8.15
2018-05-09T09:23:24.918Z,8.85
2018-05-09T09:25:53.111Z,8.05
2018-05-09T09:28:21.283Z,8.23
2018-05-09T09:30:49.428Z,7.20
2018-05-09T09:33:17.853Z,6.18
2018-05-09T09:35:46.045Z,7.55
2018-05-09T09:38:14.246Z,6.50
2018-05-09T09:40:42.411Z,6.10
2018-05-09T09:43:10.607Z,5.65
2018-05-09T09:45:38.876Z,5.78
2018-05-09T09:48:07.012Z,6.90
2018-05-09T09:50:35.287Z,6.05
2018-05-09T09:53:03.361Z,7.30
2018-05-09T09:55:31.556Z,7.47
2018-05-09T09:57:59.876Z,5.35
2018-05-09T10:00:28.091Z,6.72
2018-05-09T10:02:56.286Z,7.80
2018-05-09T10:05:24.449Z,7.70
2018-05-09T10:07:52.659Z,8.55
2018-05-09T10:10:20.859Z,4.80
2018-05-09T10:12:49.033Z,4.25
2018-05-09T10:15:17.242Z,4.70
2018-05-09T10:17:45.419Z,4.12
2018-05-09T10:20:13.717Z,3.15
2018-05-09T10:22:41.876Z,3.80
2018-05-09T10:25:10.071Z,3.30
2018-05-09T10:27:38.276Z,4.60
2018-05-09T10:30:06.482Z,4.40
2018-05-09T10:32:34.694Z,4.67
2018-05-09T10:35:02.863Z,3.70
2018-05-09T10:37:31.017Z,3.17
2018-05-09T10:39:59.276Z,3.70
2018-05-09T10:42:27.464Z,3.22
2018-05-09T10:44:55.651Z,3.35
2018-05-09T10:47:27.255Z,3.20
2018-05-09T10:49:55.476Z,3.17
2018-05-09T10:52:23.626Z,3.78
2018-05-09T10:54:51.816Z,3.80
2018-05-09T10:57:20.078Z,3.80
2018-05-09T10:59:48.204Z,4.57
2018-05-09T11:02:16.340Z,4.67
2018-05-09T11:04:44.524Z,4.28
2018-05-09T11:07:12.713Z,4.80
2018-05-09T11:09:40.859Z,5.10
2018-05-09T11:12:09.045Z,4.80
2018-05-09T11:14:37.206Z,5.30
2018-05-09T11:17:05.369Z,4.60
2018-05-09T11:19:33.567Z,5.43
2018-05-09T11:22:01.732Z,4.20
2018-05-09T11:24:30.069Z,4.25
2018-05-09T11:26:58.124Z,4.65
2018-05-09T11:29:26.360Z,3.90
2018-05-09T11:31:54.532Z,4.97
2018-05-09T11:34:22.686Z,4.05
2018-05-09T11:36:50.892Z,3.47
2018-05-09T11:39:19.082Z,3.60
2018-05-09T11:41:47.241Z,3.33
2018-05-09T11:44:15.420Z,3.60
2018-05-09T11:46:43.643Z,3.23
2018-05-09T11:49:11.795Z,3.30
2018-05-09T11:51:40.008Z,3.40
2018-05-09T11:54:08.202Z,3.28
2018-05-09T11:56:36.419Z,3.33
2018-05-09T11:59:04.595Z,3.58
2018-05-09T12:01:32.812Z,3.80
2018-05-09T12:04:00.996Z,4.00
2018-05-09T12:06:29.185Z,3.80
2018-05-09T12:08:57.381Z,3.83
2018-05-09T12:11:25.581Z,3.87
2018-05-09T12:13:53.893Z,4.47
2018-05-09T12:16:22.067Z,4.30
2018-05-09T12:18:50.324Z,4.40
2018-05-09T12:21:18.428Z,5.10
2018-05-09T12:23:46.608Z,4.65
2018-05-09T12:26:14.847Z,4.97
2018-05-09T12:28:43.044Z,5.15
2018-05-09T12:31:11.217Z,4.90
2018-05-09T12:33:39.419Z,4.12
2018-05-09T12:36:07.695Z,4.22
2018-05-09T12:38:35.871Z,4.32
2018-05-09T12:41:04.055Z,4.30
2018-05-09T12:43:32.216Z,4.40
2018-05-09T12:46:00.404Z,4.20
2018-05-09T12:48:28.628Z,3.90
2018-05-09T12:50:56.815Z,4.07
2018-05-09T12:53:25.083Z,4.20
2018-05-09T12:55:53.228Z,4.20
2018-05-09T12:58:21.443Z,4.15
2018-05-09T13:00:52.431Z,4.05
2018-05-09T13:03:20.677Z,4.00
2018-05-09T13:05:48.816Z,4.57
2018-05-09T13:08:17.009Z,3.87
2018-05-09T13:10:45.176Z,3.97
2018-05-09T13:13:13.447Z,3.80
2018-05-09T13:15:41.527Z,4.03
2018-05-09T13:18:09.704Z,3.90
2018-05-09T13:20:37.872Z,3.30
2018-05-09T13:23:06.080Z,3.80
2018-05-09T13:25:34.264Z,4.05
2018-05-09T13:28:02.472Z,3.83
2018-05-09T13:30:30.646Z,4.10
2018-05-09T13:32:58.901Z,4.25
2018-05-09T13:35:27.116Z,4.05
2018-05-09T13:37:55.325Z,4.10
2018-05-09T13:40:23.491Z,4.30
2018-05-09T13:42:51.664Z,4.28
2018-05-09T13:45:19.981Z,4.22
2018-05-09T13:47:48.174Z,3.95
2018-05-09T13:50:16.355Z,4.00
2018-05-09T13:52:44.553Z,4.28
2018-05-09T13:55:12.737Z,3.95
2018-05-09T13:57:41.002Z,4.10
2018-05-09T14:00:09.235Z,4.00
2018-05-09T14:02:37.426Z,3.97
2018-05-09T14:05:05.682Z,4.20
2018-05-09T14:07:33.814Z,4.05
2018-05-09T14:10:02.092Z,3.87
2018-05-09T14:12:30.152Z,4.20
2018-05-09T14:14:58.352Z,4.05
2018-05-09T14:17:26.501Z,4.18
2018-05-09T14:19:54.720Z,4.18
2018-05-09T14:22:22.919Z,4.00
2018-05-09T14:24:51.087Z,4.05
2018-05-09T14:27:19.426Z,4.20
2018-05-09T14:29:47.492Z,4.12
2018-05-09T14:32:15.673Z,3.85
2018-05-09T14:34:43.883Z,3.90
2018-05-09T14:37:12.103Z,4.20
2018-05-09T14:39:40.194Z,4.05
2018-05-09T14:42:08.394Z,4.50
2018-05-09T14:44:36.553Z,3.97
2018-05-09T14:47:04.757Z,4.33
2018-05-09T14:49:32.955Z,4.20
2018-05-09T14:52:01.130Z,4.27
2018-05-09T14:54:29.319Z,4.30
2018-05-09T14:56:57.516Z,4.77
2018-05-09T14:59:25.788Z,4.17
2018-05-09T15:01:53.954Z,4.90
2018-05-09T15:04:22.185Z,4.50
2018-05-09T15:06:50.297Z,4.20
2018-05-09T15:09:18.474Z,4.60
2018-05-09T15:11:46.657Z,4.27
2018-05-09T15:14:14.876Z,4.30
2018-05-09T15:16:43.095Z,4.30
2018-05-09T15:19:11.241Z,4.30
2018-05-09T15:21:39.413Z,4.03
2018-05-09T15:24:07.656Z,15.97
2018-05-09T15:26:35.829Z,15.90
2018-05-09T15:29:04.002Z,19.70
2018-05-09T15:31:32.176Z,19.80
2018-05-09T15:34:00.347Z,19.17
2018-05-09T15:36:28.533Z,20.53
2018-05-09T15:38:56.868Z,16.90
2018-05-09T15:41:25.004Z,17.07
2018-05-09T15:43:53.107Z,16.90
2018-05-09T15:46:21.380Z,17.93
2018-05-09T15:48:49.550Z,17.50
2018-05-09T15:51:17.719Z,16.53
2018-05-09T15:53:45.900Z,16.00
2018-05-09T15:56:14.103Z,18.40
2018-05-09T15:58:42.260Z,20.63
2018-05-09T16:01:10.446Z,18.13
2018-05-09T16:03:38.617Z,18.50
2018-05-09T16:06:06.885Z,20.53
2018-05-09T16:08:35.066Z,18.87
2018-05-09T16:11:03.250Z,18.48
2018-05-09T16:13:31.415Z,22.42
2018-05-09T16:15:59.604Z,25.48
2018-05-09T16:18:27.797Z,27.02
2018-05-09T16:20:55.959Z,26.02
2018-05-09T16:23:24.139Z,25.60
2018-05-09T16:25:52.304Z,27.98
2018-05-09T16:28:20.504Z,27.98
2018-05-09T16:30:48.712Z,25.48
2018-05-09T16:33:16.884Z,23.77
2018-05-09T16:35:45.078Z,27.00
2018-05-09T16:38:13.259Z,25.00
2018-05-09T16:40:41.441Z,24.73
2018-05-09T16:43:09.606Z,27.00
2018-05-09T16:45:37.858Z,26.23
2018-05-09T16:48:06.064Z,27.62
2018-05-09T16:50:34.147Z,27.30
2018-05-09T16:53:02.498Z,26.30
2018-05-09T16:55:30.603Z,24.83
2018-05-09T16:57:58.838Z,24.90
2018-05-09T17:00:27.039Z,22.60
2018-05-09T17:02:55.249Z,23.33
2018-05-09T17:05:23.465Z,21.65
2018-05-09T17:07:51.661Z,22.67
2018-05-09T17:10:19.906Z,24.27
2018-05-09T17:12:48.103Z,23.65
2018-05-09T17:15:16.279Z,24.83
2018-05-09T17:17:44.453Z,24.23
2018-05-09T17:20:12.679Z,24.40
2018-05-09T17:22:40.801Z,24.50
2018-05-09T17:25:09.008Z,27.92
2018-05-09T17:27:37.221Z,26.00
2018-05-09T17:30:05.438Z,27.58
2018-05-09T17:32:33.612Z,26.42
2018-05-09T17:35:01.868Z,26.83
2018-05-09T17:37:30.055Z,26.02
2018-05-09T17:39:58.357Z,25.40
2018-05-09T17:42:26.659Z,25.55
2018-05-09T17:44:54.802Z,24.52
2018-05-09T17:47:22.974Z,24.27
2018-05-09T17:49:51.237Z,24.17
2018-05-09T17:52:19.438Z,24.37
2018-05-09T17:54:47.561Z,22.80
2018-05-09T17:57:15.748Z,23.00
2018-05-09T17:59:43.955Z,23.58
2018-05-09T18:02:12.172Z,21.62
2018-05-09T18:04:40.369Z,21.75
2018-05-09T18:07:08.583Z,22.02
2018-05-09T18:09:36.788Z,22.73
2018-05-09T18:12:04.959Z,23.47
2018-05-09T18:14:33.146Z,23.67
2018-05-09T18:17:01.395Z,23.65
2018-05-09T18:19:29.583Z,24.45
2018-05-09T18:21:57.782Z,24.27
2018-05-09T18:24:25.992Z,24.67
2018-05-09T18:26:54.237Z,24.42
2018-05-09T18:29:22.339Z,26.60
2018-05-09T18:31:50.556Z,26.40
2018-05-09T18:34:18.717Z,26.10
2018-05-09T18:36:46.906Z,26.77
2018-05-09T18:39:15.140Z,26.20
2018-05-09T18:41:43.353Z,25.90
2018-05-09T18:44:11.532Z,26.55
2018-05-09T18:46:39.886Z,27.50
2018-05-09T18:49:08.109Z,28.75
2018-05-09T18:51:36.276Z,28.55
2018-05-09T18:54:04.496Z,27.90
2018-05-09T18:56:32.679Z,29.30
2018-05-09T18:59:00.852Z,29.55
2018-05-09T19:01:29.098Z,31.52
2018-05-09T19:03:57.307Z,32.35
2018-05-09T19:06:25.566Z,31.10
2018-05-09T19:08:53.720Z,31.25
2018-05-09T19:11:21.957Z,31.73
2018-05-09T19:13:50.170Z,32.67
2018-05-09T19:16:24.288Z,31.17
2018-05-09T19:18:52.444Z,30.95
2018-05-09T19:21:20.657Z,28.87
2018-05-09T19:23:48.816Z,30.73
2018-05-09T19:26:17.021Z,30.15
2018-05-09T19:28:45.254Z,31.37
2018-05-09T19:31:13.444Z,31.33
2018-05-09T19:33:41.598Z,31.50
2018-05-09T19:36:10.622Z,31.75
2018-05-09T19:38:38.870Z,33.50
2018-05-09T19:41:07.069Z,32.88
2018-05-09T19:43:35.225Z,31.05
2018-05-09T19:46:05.894Z,30.70
2018-05-09T19:48:34.075Z,39.22
2018-05-09T19:51:02.256Z,42.15
2018-05-09T19:53:30.454Z,42.33
2018-05-09T19:55:58.665Z,45.40
2018-05-09T19:58:26.871Z,45.75
2018-05-09T20:00:55.038Z,48.50
2018-05-09T20:03:23.212Z,49.15
2018-05-09T20:05:51.387Z,51.07
2018-05-09T20:08:19.573Z,49.55
2018-05-09T20:10:47.739Z,50.10
2018-05-09T20:13:15.990Z,48.83
2018-05-09T20:15:44.177Z,49.90
2018-05-09T20:18:12.359Z,50.60
2018-05-09T20:20:40.555Z,49.87
2018-05-09T20:23:08.778Z,49.40
2018-05-09T20:25:37.025Z,49.38
2018-05-09T20:28:05.245Z,46.80
2018-05-09T20:30:52.552Z,47.15
2018-05-09T20:33:20.780Z,46.07
2018-05-09T20:35:48.955Z,46.53
2018-05-09T20:38:17.157Z,48.47
2018-05-09T20:40:45.317Z,51.13
2018-05-09T20:43:13.543Z,52.78
2018-05-09T20:45:41.717Z,53.38
2018-05-09T20:48:09.874Z,53.07
2018-05-09T20:50:38.077Z,57.30
2018-05-09T20:53:06.266Z,57.17
2018-05-09T20:55:36.972Z,58.00
2018-05-09T20:58:05.194Z,60.25
2018-05-09T21:00:33.357Z,60.92
2018-05-09T21:03:01.549Z,62.70
2018-05-09T21:05:29.785Z,61.67
2018-05-09T21:07:57.990Z,62.80
2018-05-09T21:10:26.194Z,64.20
2018-05-09T21:12:54.367Z,63.40
2018-05-09T21:15:22.547Z,64.15
2018-05-09T21:17:50.715Z,65.95
2018-05-09T21:20:18.906Z,67.82
2018-05-09T21:22:47.118Z,68.45
2018-05-09T21:25:15.355Z,69.30
2018-05-09T21:27:43.526Z,72.72
2018-05-09T21:30:11.725Z,73.43
2018-05-09T21:32:39.885Z,76.32
2018-05-09T21:35:08.109Z,75.82
2018-05-09T21:37:36.323Z,77.80
2018-05-09T21:40:04.499Z,76.57
2018-05-09T21:42:32.677Z,77.28
2018-05-09T21:45:00.905Z,77.55
2018-05-09T21:47:29.087Z,77.60
2018-05-09T21:49:57.302Z,80.15
2018-05-09T21:52:25.478Z,81.03
2018-05-09T21:54:53.646Z,78.33
2018-05-09T21:57:21.833Z,77.72
2018-05-09T21:59:50.011Z,78.72
2018-05-09T22:02:18.245Z,79.18
2018-05-09T22:04:46.452Z,77.62
2018-05-09T22:07:14.706Z,76.70
2018-05-09T22:09:42.901Z,74.90
2018-05-09T22:12:11.085Z,73.62
2018-05-09T22:14:39.276Z,70.80
2018-05-09T22:17:07.534Z,69.32
2018-05-09T22:19:35.756Z,70.20
2018-05-09T22:22:03.930Z,67.53
2018-05-09T22:24:32.132Z,68.03
2018-05-09T22:27:00.408Z,65.15
2018-05-09T22:29:28.598Z,64.50
2018-05-09T22:31:56.779Z,64.47
2018-05-09T22:34:24.959Z,64.18
2018-05-09T22:36:53.134Z,62.65
2018-05-09T22:39:21.399Z,60.78
2018-05-09T22:41:49.558Z,60.77
2018-05-09T22:44:17.776Z,59.10
2018-05-09T22:46:45.963Z,60.00
2018-05-09T22:49:14.356Z,58.40
2018-05-09T22:51:42.521Z,58.23
2018-05-09T22:54:10.709Z,56.22
2018-05-09T22:56:38.879Z,57.17
2018-05-09T22:59:07.180Z,55.78
2018-05-09T23:01:35.333Z,53.75
2018-05-09T23:04:03.527Z,53.10
2018-05-09T23:06:31.695Z,53.97
2018-05-09T23:08:59.977Z,52.72
2018-05-09T23:11:28.139Z,51.37
2018-05-09T23:13:56.320Z,51.60
2018-05-09T23:16:24.500Z,50.60
2018-05-09T23:18:52.669Z,50.40
2018-05-09T23:21:20.919Z,49.05
2018-05-09T23:23:49.186Z,49.20
2018-05-09T23:26:17.301Z,48.33
2018-05-09T23:28:45.488Z,47.45
2018-05-09T23:31:13.686Z,46.17
2018-05-09T23:33:41.887Z,47.70
2018-05-09T23:36:10.049Z,47.00
2018-05-09T23:38:38.285Z,47.30
2018-05-09T23:41:06.542Z,46.63
2018-05-09T23:43:34.766Z,45.35
2018-05-09T23:46:03.121Z,46.05
2018-05-09T23:48:31.281Z,44.65
2018-05-09T23:50:59.567Z,44.95
2018-05-09T23:53:27.740Z,43.72
2018-05-09T23:55:55.999Z,42.55
2018-05-09T23:58:24.186Z,43.03
